sensor_id;sensor_type;location;lat;lon;timestamp;P1;durP1;ratioP1;P2;durP2;ratioP2
4758;SDS011;2393;50.560;12.636;2023-11-21T00:01:38;1.03;;;0.30;;
4758;SDS011;2393;50.560;12.636;2023-11-21T00:04:06;1.37;;;0.67;;
4758;SDS011;2393;50.560;12.636;2023-11-21T00:06:36;0.40;;;0.40;;
4758;SDS011;2393;50.560;12.636;2023-11-21T00:09:05;1.43;;;0.40;;
4758;SDS011;2393;50.560;12.636;2023-11-21T00:11:34;0.40;;;0.33;;
4758;SDS011;2393;50.560;12.636;2023-11-21T00:14:04;0.30;;;0.20;;
4758;SDS011;2393;50.560;12.636;2023-11-21T00:16:33;1.50;;;0.60;;
4758;SDS011;2393;50.560;12.636;2023-11-21T00:19:01;1.90;;;0.30;;
4758;SDS011;2393;50.560;12.636;2023-11-21T00:21:29;0.73;;;0.40;;
4758;SDS011;2393;50.560;12.636;2023-11-21T00:23:59;1.47;;;0.53;;
4758;SDS011;2393;50.560;12.636;2023-11-21T00:26:27;0.50;;;0.50;;
4758;SDS011;2393;50.560;12.636;2023-11-21T00:29:00;1.97;;;0.40;;
4758;SDS011;2393;50.560;12.636;2023-11-21T00:31:29;2.17;;;0.60;;
4758;SDS011;2393;50.560;12.636;2023-11-21T00:33:58;5.20;;;0.30;;
4758;SDS011;2393;50.560;12.636;2023-11-21T00:36:26;0.30;;;0.20;;
4758;SDS011;2393;50.560;12.636;2023-11-21T00:38:54;1.03;;;0.50;;
4758;SDS011;2393;50.560;12.636;2023-11-21T00:41:24;0.40;;;0.40;;
4758;SDS011;2393;50.560;12.636;2023-11-21T00:43:54;1.40;;;0.30;;
4758;SDS011;2393;50.560;12.636;2023-11-21T00:46:22;1.23;;;0.30;;
4758;SDS011;2393;50.560;12.636;2023-11-21T00:48:53;1.27;;;0.27;;
4758;SDS011;2393;50.560;12.636;2023-11-21T00:51:21;2.20;;;0.50;;
4758;SDS011;2393;50.560;12.636;2023-11-21T00:53:51;2.20;;;0.50;;
4758;SDS011;2393;50.560;12.636;2023-11-21T00:56:19;1.83;;;0.30;;
4758;SDS011;2393;50.560;12.636;2023-11-21T00:58:49;7.87;;;0.40;;
4758;SDS011;2393;50.560;12.636;2023-11-21T01:01:19;0.30;;;0.23;;
4758;SDS011;2393;50.560;12.636;2023-11-21T01:03:48;0.30;;;0.27;;
4758;SDS011;2393;50.560;12.636;2023-11-21T01:06:18;0.73;;;0.43;;
4758;SDS011;2393;50.560;12.636;2023-11-21T01:08:47;4.20;;;0.37;;
4758;SDS011;2393;50.560;12.636;2023-11-21T01:11:15;1.17;;;0.50;;
4758;SDS011;2393;50.560;12.636;2023-11-21T01:13:45;1.40;;;0.63;;
4758;SDS011;2393;50.560;12.636;2023-11-21T01:16:14;0.50;;;0.50;;
4758;SDS011;2393;50.560;12.636;2023-11-21T01:18:43;2.00;;;0.40;;
4758;SDS011;2393;50.560;12.636;2023-11-21T01:21:11;0.47;;;0.30;;
4758;SDS011;2393;50.560;12.636;2023-11-21T01:23:40;2.73;;;0.30;;
4758;SDS011;2393;50.560;12.636;2023-11-21T01:26:09;0.43;;;0.40;;
4758;SDS011;2393;50.560;12.636;2023-11-21T01:28:37;1.30;;;0.77;;
4758;SDS011;2393;50.560;12.636;2023-11-21T01:31:05;1.23;;;0.60;;
4758;SDS011;2393;50.560;12.636;2023-11-21T01:33:35;1.07;;;0.30;;
4758;SDS011;2393;50.560;12.636;2023-11-21T01:36:03;0.50;;;0.33;;
4758;SDS011;2393;50.560;12.636;2023-11-21T01:38:32;3.33;;;0.50;;
4758;SDS011;2393;50.560;12.636;2023-11-21T01:41:01;0.50;;;0.40;;
4758;SDS011;2393;50.560;12.636;2023-11-21T01:43:30;1.93;;;0.40;;
4758;SDS011;2393;50.560;12.636;2023-11-21T01:45:59;0.70;;;0.30;;
4758;SDS011;2393;50.560;12.636;2023-11-21T01:48:27;0.87;;;0.30;;
4758;SDS011;2393;50.560;12.636;2023-11-21T01:50:57;6.43;;;0.40;;
4758;SDS011;2393;50.560;12.636;2023-11-21T01:53:26;0.40;;;0.30;;
4758;SDS011;2393;50.560;12.636;2023-11-21T01:55:54;7.00;;;0.40;;
4758;SDS011;2393;50.560;12.636;2023-11-21T01:58:25;4.23;;;0.40;;
4758;SDS011;2393;50.560;12.636;2023-11-21T02:00:53;1.70;;;0.60;;
4758;SDS011;2393;50.560;12.636;2023-11-21T02:03:22;0.60;;;0.60;;
4758;SDS011;2393;50.560;12.636;2023-11-21T02:05:50;0.47;;;0.40;;
4758;SDS011;2393;50.560;12.636;2023-11-21T02:08:21;1.60;;;0.43;;
4758;SDS011;2393;50.560;12.636;2023-11-21T02:10:51;0.50;;;0.50;;
4758;SDS011;2393;50.560;12.636;2023-11-21T02:13:19;0.50;;;0.50;;
4758;SDS011;2393;50.560;12.636;2023-11-21T02:15:47;1.83;;;0.50;;
4758;SDS011;2393;50.560;12.636;2023-11-21T02:18:18;0.57;;;0.47;;
4758;SDS011;2393;50.560;12.636;2023-11-21T02:20:48;0.60;;;0.60;;
4758;SDS011;2393;50.560;12.636;2023-11-21T02:23:19;0.40;;;0.40;;
4758;SDS011;2393;50.560;12.636;2023-11-21T02:25:47;0.70;;;0.70;;
4758;SDS011;2393;50.560;12.636;2023-11-21T02:28:15;0.50;;;0.50;;
4758;SDS011;2393;50.560;12.636;2023-11-21T02:30:52;0.43;;;0.43;;
4758;SDS011;2393;50.560;12.636;2023-11-21T02:33:22;1.10;;;1.00;;
4758;SDS011;2393;50.560;12.636;2023-11-21T02:35:51;10.03;;;1.23;;
4758;SDS011;2393;50.560;12.636;2023-11-21T02:38:23;2.07;;;0.70;;
4758;SDS011;2393;50.560;12.636;2023-11-21T02:40:51;1.80;;;0.77;;
4758;SDS011;2393;50.560;12.636;2023-11-21T02:43:21;1.53;;;1.30;;
4758;SDS011;2393;50.560;12.636;2023-11-21T02:45:50;0.63;;;0.63;;
4758;SDS011;2393;50.560;12.636;2023-11-21T02:48:18;0.70;;;0.70;;
4758;SDS011;2393;50.560;12.636;2023-11-21T02:50:46;2.33;;;1.00;;
4758;SDS011;2393;50.560;12.636;2023-11-21T02:53:14;1.13;;;0.50;;
4758;SDS011;2393;50.560;12.636;2023-11-21T02:55:44;1.47;;;0.70;;
4758;SDS011;2393;50.560;12.636;2023-11-21T02:58:12;1.17;;;0.77;;
4758;SDS011;2393;50.560;12.636;2023-11-21T03:00:42;2.90;;;1.13;;
4758;SDS011;2393;50.560;12.636;2023-11-21T03:03:10;0.77;;;0.77;;
4758;SDS011;2393;50.560;12.636;2023-11-21T03:05:41;7.10;;;0.70;;
4758;SDS011;2393;50.560;12.636;2023-11-21T03:08:09;1.07;;;0.90;;
4758;SDS011;2393;50.560;12.636;2023-11-21T03:10:37;9.37;;;1.10;;
4758;SDS011;2393;50.560;12.636;2023-11-21T03:13:07;0.43;;;0.43;;
4758;SDS011;2393;50.560;12.636;2023-11-21T03:15:35;0.70;;;0.70;;
4758;SDS011;2393;50.560;12.636;2023-11-21T03:18:03;0.50;;;0.50;;
4758;SDS011;2393;50.560;12.636;2023-11-21T03:20:32;1.57;;;0.70;;
4758;SDS011;2393;50.560;12.636;2023-11-21T03:23:01;0.60;;;0.60;;
4758;SDS011;2393;50.560;12.636;2023-11-21T03:25:30;0.80;;;0.80;;
4758;SDS011;2393;50.560;12.636;2023-11-21T03:27:58;0.70;;;0.57;;
4758;SDS011;2393;50.560;12.636;2023-11-21T03:30:28;2.13;;;1.00;;
4758;SDS011;2393;50.560;12.636;2023-11-21T03:32:57;0.60;;;0.53;;
4758;SDS011;2393;50.560;12.636;2023-11-21T03:35:25;5.10;;;1.07;;
4758;SDS011;2393;50.560;12.636;2023-11-21T03:37:54;1.83;;;0.70;;
4758;SDS011;2393;50.560;12.636;2023-11-21T03:40:23;2.53;;;0.80;;
4758;SDS011;2393;50.560;12.636;2023-11-21T03:42:51;1.67;;;0.90;;
4758;SDS011;2393;50.560;12.636;2023-11-21T03:45:19;0.60;;;0.60;;
4758;SDS011;2393;50.560;12.636;2023-11-21T03:47:49;0.90;;;0.90;;
4758;SDS011;2393;50.560;12.636;2023-11-21T03:50:17;1.23;;;0.80;;
4758;SDS011;2393;50.560;12.636;2023-11-21T03:52:46;0.63;;;0.63;;
4758;SDS011;2393;50.560;12.636;2023-11-21T03:55:14;1.53;;;0.97;;
4758;SDS011;2393;50.560;12.636;2023-11-21T03:57:43;0.80;;;0.80;;
4758;SDS011;2393;50.560;12.636;2023-11-21T04:00:12;0.73;;;0.73;;
4758;SDS011;2393;50.560;12.636;2023-11-21T04:02:40;0.93;;;0.83;;
4758;SDS011;2393;50.560;12.636;2023-11-21T04:05:11;0.93;;;0.80;;
4758;SDS011;2393;50.560;12.636;2023-11-21T04:07:40;2.00;;;1.00;;
4758;SDS011;2393;50.560;12.636;2023-11-21T04:10:09;0.90;;;0.90;;
4758;SDS011;2393;50.560;12.636;2023-11-21T04:12:39;0.73;;;0.73;;
4758;SDS011;2393;50.560;12.636;2023-11-21T04:15:08;8.50;;;1.10;;
4758;SDS011;2393;50.560;12.636;2023-11-21T04:17:37;1.13;;;1.00;;
4758;SDS011;2393;50.560;12.636;2023-11-21T04:20:06;1.90;;;1.00;;
4758;SDS011;2393;50.560;12.636;2023-11-21T04:22:38;0.90;;;0.90;;
4758;SDS011;2393;50.560;12.636;2023-11-21T04:25:11;2.77;;;0.87;;
4758;SDS011;2393;50.560;12.636;2023-11-21T04:27:42;2.70;;;1.00;;
4758;SDS011;2393;50.560;12.636;2023-11-21T04:30:12;2.00;;;1.00;;
4758;SDS011;2393;50.560;12.636;2023-11-21T04:32:41;1.33;;;1.07;;
4758;SDS011;2393;50.560;12.636;2023-11-21T04:35:09;0.70;;;0.70;;
4758;SDS011;2393;50.560;12.636;2023-11-21T04:37:39;3.97;;;1.60;;
4758;SDS011;2393;50.560;12.636;2023-11-21T04:40:08;0.97;;;0.90;;
4758;SDS011;2393;50.560;12.636;2023-11-21T04:42:37;9.43;;;1.47;;
4758;SDS011;2393;50.560;12.636;2023-11-21T04:45:05;1.30;;;1.20;;
4758;SDS011;2393;50.560;12.636;2023-11-21T04:47:36;2.33;;;1.07;;
4758;SDS011;2393;50.560;12.636;2023-11-21T04:50:05;0.70;;;0.70;;
4758;SDS011;2393;50.560;12.636;2023-11-21T04:52:34;1.43;;;1.33;;
4758;SDS011;2393;50.560;12.636;2023-11-21T04:55:04;3.80;;;0.80;;
4758;SDS011;2393;50.560;12.636;2023-11-21T04:57:33;3.50;;;1.23;;
4758;SDS011;2393;50.560;12.636;2023-11-21T05:00:01;3.17;;;1.10;;
4758;SDS011;2393;50.560;12.636;2023-11-21T05:02:32;0.90;;;0.90;;
4758;SDS011;2393;50.560;12.636;2023-11-21T05:05:02;0.93;;;0.93;;
4758;SDS011;2393;50.560;12.636;2023-11-21T05:07:33;3.90;;;1.00;;
4758;SDS011;2393;50.560;12.636;2023-11-21T05:10:05;3.60;;;1.40;;
4758;SDS011;2393;50.560;12.636;2023-11-21T05:12:37;1.23;;;1.13;;
4758;SDS011;2393;50.560;12.636;2023-11-21T05:15:07;4.00;;;1.10;;
4758;SDS011;2393;50.560;12.636;2023-11-21T05:17:37;0.90;;;0.90;;
4758;SDS011;2393;50.560;12.636;2023-11-21T05:20:11;1.90;;;1.20;;
4758;SDS011;2393;50.560;12.636;2023-11-21T05:22:40;2.23;;;1.30;;
4758;SDS011;2393;50.560;12.636;2023-11-21T05:25:11;0.80;;;0.70;;
4758;SDS011;2393;50.560;12.636;2023-11-21T05:27:39;4.00;;;1.20;;
4758;SDS011;2393;50.560;12.636;2023-11-21T05:30:08;2.27;;;1.73;;
4758;SDS011;2393;50.560;12.636;2023-11-21T05:32:38;2.20;;;1.30;;
4758;SDS011;2393;50.560;12.636;2023-11-21T05:35:09;1.60;;;1.20;;
4758;SDS011;2393;50.560;12.636;2023-11-21T05:37:42;1.80;;;1.17;;
4758;SDS011;2393;50.560;12.636;2023-11-21T05:40:12;1.27;;;0.70;;
4758;SDS011;2393;50.560;12.636;2023-11-21T05:42:40;1.40;;;1.30;;
4758;SDS011;2393;50.560;12.636;2023-11-21T05:45:09;1.83;;;0.93;;
4758;SDS011;2393;50.560;12.636;2023-11-21T05:47:39;1.60;;;1.23;;
4758;SDS011;2393;50.560;12.636;2023-11-21T05:50:08;1.30;;;1.20;;
4758;SDS011;2393;50.560;12.636;2023-11-21T05:52:42;4.10;;;1.40;;
4758;SDS011;2393;50.560;12.636;2023-11-21T05:55:12;1.00;;;1.00;;
4758;SDS011;2393;50.560;12.636;2023-11-21T05:57:42;1.10;;;1.10;;
4758;SDS011;2393;50.560;12.636;2023-11-21T06:00:12;1.50;;;1.40;;
4758;SDS011;2393;50.560;12.636;2023-11-21T06:02:45;2.00;;;1.33;;
4758;SDS011;2393;50.560;12.636;2023-11-21T06:05:13;8.53;;;1.40;;
4758;SDS011;2393;50.560;12.636;2023-11-21T06:07:42;1.17;;;1.13;;
4758;SDS011;2393;50.560;12.636;2023-11-21T06:10:10;2.23;;;1.97;;
4758;SDS011;2393;50.560;12.636;2023-11-21T06:12:42;3.23;;;1.53;;
4758;SDS011;2393;50.560;12.636;2023-11-21T06:15:11;3.20;;;2.90;;
4758;SDS011;2393;50.560;12.636;2023-11-21T06:17:40;4.30;;;2.33;;
4758;SDS011;2393;50.560;12.636;2023-11-21T06:20:11;4.10;;;2.63;;
4758;SDS011;2393;50.560;12.636;2023-11-21T06:22:41;2.17;;;1.97;;
4758;SDS011;2393;50.560;12.636;2023-11-21T06:25:10;2.90;;;2.27;;
4758;SDS011;2393;50.560;12.636;2023-11-21T06:27:41;2.33;;;2.10;;
4758;SDS011;2393;50.560;12.636;2023-11-21T06:30:11;3.40;;;2.47;;
4758;SDS011;2393;50.560;12.636;2023-11-21T06:32:42;9.40;;;2.03;;
4758;SDS011;2393;50.560;12.636;2023-11-21T06:35:13;5.20;;;2.73;;
4758;SDS011;2393;50.560;12.636;2023-11-21T06:37:43;2.80;;;2.53;;
4758;SDS011;2393;50.560;12.636;2023-11-21T06:40:15;3.03;;;1.97;;
4758;SDS011;2393;50.560;12.636;2023-11-21T06:42:46;2.13;;;2.00;;
4758;SDS011;2393;50.560;12.636;2023-11-21T06:45:15;5.67;;;2.70;;
4758;SDS011;2393;50.560;12.636;2023-11-21T06:47:44;2.80;;;2.60;;
4758;SDS011;2393;50.560;12.636;2023-11-21T06:50:13;8.10;;;3.40;;
4758;SDS011;2393;50.560;12.636;2023-11-21T06:52:41;4.10;;;3.70;;
4758;SDS011;2393;50.560;12.636;2023-11-21T06:55:10;5.10;;;3.00;;
4758;SDS011;2393;50.560;12.636;2023-11-21T06:57:40;5.43;;;2.60;;
4758;SDS011;2393;50.560;12.636;2023-11-21T07:00:10;3.80;;;3.50;;
4758;SDS011;2393;50.560;12.636;2023-11-21T07:02:38;4.03;;;3.60;;
4758;SDS011;2393;50.560;12.636;2023-11-21T07:05:07;3.83;;;3.10;;
4758;SDS011;2393;50.560;12.636;2023-11-21T07:07:35;2.60;;;2.40;;
4758;SDS011;2393;50.560;12.636;2023-11-21T07:10:04;4.00;;;2.47;;
4758;SDS011;2393;50.560;12.636;2023-11-21T07:12:34;4.30;;;3.63;;
4758;SDS011;2393;50.560;12.636;2023-11-21T07:15:03;4.37;;;3.13;;
4758;SDS011;2393;50.560;12.636;2023-11-21T07:17:36;3.23;;;2.60;;
4758;SDS011;2393;50.560;12.636;2023-11-21T07:20:07;3.23;;;2.93;;
4758;SDS011;2393;50.560;12.636;2023-11-21T07:22:37;5.90;;;3.20;;
4758;SDS011;2393;50.560;12.636;2023-11-21T07:25:06;6.33;;;3.37;;
4758;SDS011;2393;50.560;12.636;2023-11-21T07:27:36;8.83;;;3.90;;
4758;SDS011;2393;50.560;12.636;2023-11-21T07:30:04;6.07;;;3.53;;
4758;SDS011;2393;50.560;12.636;2023-11-21T07:32:36;3.50;;;3.20;;
4758;SDS011;2393;50.560;12.636;2023-11-21T07:35:07;4.73;;;2.37;;
4758;SDS011;2393;50.560;12.636;2023-11-21T07:37:36;3.67;;;3.30;;
4758;SDS011;2393;50.560;12.636;2023-11-21T07:40:05;5.80;;;3.10;;
4758;SDS011;2393;50.560;12.636;2023-11-21T07:42:35;5.60;;;3.17;;
4758;SDS011;2393;50.560;12.636;2023-11-21T07:45:04;6.50;;;3.67;;
4758;SDS011;2393;50.560;12.636;2023-11-21T07:47:33;3.97;;;3.57;;
4758;SDS011;2393;50.560;12.636;2023-11-21T07:50:04;7.63;;;4.13;;
4758;SDS011;2393;50.560;12.636;2023-11-21T07:52:34;9.50;;;4.80;;
4758;SDS011;2393;50.560;12.636;2023-11-21T07:55:03;7.03;;;2.97;;
4758;SDS011;2393;50.560;12.636;2023-11-21T07:57:31;6.00;;;3.60;;
4758;SDS011;2393;50.560;12.636;2023-11-21T07:59:59;8.20;;;3.87;;
4758;SDS011;2393;50.560;12.636;2023-11-21T08:02:37;4.67;;;4.17;;
4758;SDS011;2393;50.560;12.636;2023-11-21T08:05:10;11.20;;;5.43;;
4758;SDS011;2393;50.560;12.636;2023-11-21T08:07:50;8.63;;;4.70;;
4758;SDS011;2393;50.560;12.636;2023-11-21T08:10:19;10.13;;;3.87;;
4758;SDS011;2393;50.560;12.636;2023-11-21T08:12:48;10.67;;;4.20;;
4758;SDS011;2393;50.560;12.636;2023-11-21T08:15:17;14.07;;;4.40;;
4758;SDS011;2393;50.560;12.636;2023-11-21T08:17:45;12.90;;;4.80;;
4758;SDS011;2393;50.560;12.636;2023-11-21T08:20:15;7.93;;;4.03;;
4758;SDS011;2393;50.560;12.636;2023-11-21T08:22:44;8.50;;;3.57;;
4758;SDS011;2393;50.560;12.636;2023-11-21T08:25:14;10.30;;;3.60;;
4758;SDS011;2393;50.560;12.636;2023-11-21T08:27:43;16.10;;;4.57;;
4758;SDS011;2393;50.560;12.636;2023-11-21T08:30:12;10.90;;;3.70;;
4758;SDS011;2393;50.560;12.636;2023-11-21T08:32:40;7.37;;;3.80;;
4758;SDS011;2393;50.560;12.636;2023-11-21T08:35:08;8.30;;;3.50;;
4758;SDS011;2393;50.560;12.636;2023-11-21T08:37:40;4.40;;;3.40;;
4758;SDS011;2393;50.560;12.636;2023-11-21T08:40:09;10.33;;;3.67;;
4758;SDS011;2393;50.560;12.636;2023-11-21T08:42:42;3.73;;;3.00;;
4758;SDS011;2393;50.560;12.636;2023-11-21T08:45:11;8.30;;;4.33;;
4758;SDS011;2393;50.560;12.636;2023-11-21T08:47:40;5.87;;;3.00;;
4758;SDS011;2393;50.560;12.636;2023-11-21T08:50:10;8.30;;;3.87;;
4758;SDS011;2393;50.560;12.636;2023-11-21T08:52:41;7.87;;;4.17;;
4758;SDS011;2393;50.560;12.636;2023-11-21T08:55:12;10.53;;;3.93;;
4758;SDS011;2393;50.560;12.636;2023-11-21T08:57:41;7.67;;;3.87;;
4758;SDS011;2393;50.560;12.636;2023-11-21T09:00:12;7.57;;;3.83;;
4758;SDS011;2393;50.560;12.636;2023-11-21T09:02:43;11.00;;;3.43;;
4758;SDS011;2393;50.560;12.636;2023-11-21T09:05:12;5.60;;;3.60;;
4758;SDS011;2393;50.560;12.636;2023-11-21T09:07:43;6.90;;;4.03;;
4758;SDS011;2393;50.560;12.636;2023-11-21T09:10:12;8.70;;;4.37;;
4758;SDS011;2393;50.560;12.636;2023-11-21T09:12:41;5.40;;;4.00;;
4758;SDS011;2393;50.560;12.636;2023-11-21T09:15:09;9.03;;;3.83;;
4758;SDS011;2393;50.560;12.636;2023-11-21T09:17:38;9.10;;;4.43;;
4758;SDS011;2393;50.560;12.636;2023-11-21T09:20:07;8.00;;;3.80;;
4758;SDS011;2393;50.560;12.636;2023-11-21T09:22:37;7.87;;;3.80;;
4758;SDS011;2393;50.560;12.636;2023-11-21T09:25:07;3.43;;;2.97;;
4758;SDS011;2393;50.560;12.636;2023-11-21T09:27:35;6.93;;;3.63;;
4758;SDS011;2393;50.560;12.636;2023-11-21T09:30:04;9.33;;;3.37;;
4758;SDS011;2393;50.560;12.636;2023-11-21T09:32:35;7.27;;;3.03;;
4758;SDS011;2393;50.560;12.636;2023-11-21T09:35:05;4.93;;;3.93;;
4758;SDS011;2393;50.560;12.636;2023-11-21T09:37:35;6.10;;;3.63;;
4758;SDS011;2393;50.560;12.636;2023-11-21T09:40:05;4.00;;;3.33;;
4758;SDS011;2393;50.560;12.636;2023-11-21T09:42:40;2.60;;;2.37;;
4758;SDS011;2393;50.560;12.636;2023-11-21T09:45:14;5.23;;;2.87;;
4758;SDS011;2393;50.560;12.636;2023-11-21T09:47:46;2.33;;;2.23;;
4758;SDS011;2393;50.560;12.636;2023-11-21T09:50:15;3.83;;;1.40;;
4758;SDS011;2393;50.560;12.636;2023-11-21T09:52:47;4.00;;;1.63;;
4758;SDS011;2393;50.560;12.636;2023-11-21T09:55:28;2.40;;;2.20;;
4758;SDS011;2393;50.560;12.636;2023-11-21T09:57:59;3.23;;;1.43;;
4758;SDS011;2393;50.560;12.636;2023-11-21T10:00:27;5.17;;;2.93;;
4758;SDS011;2393;50.560;12.636;2023-11-21T10:02:59;2.10;;;1.67;;
4758;SDS011;2393;50.560;12.636;2023-11-21T10:05:29;5.03;;;2.70;;
4758;SDS011;2393;50.560;12.636;2023-11-21T10:08:00;2.10;;;2.00;;
4758;SDS011;2393;50.560;12.636;2023-11-21T10:10:31;2.50;;;1.90;;
4758;SDS011;2393;50.560;12.636;2023-11-21T10:13:01;6.17;;;2.60;;
4758;SDS011;2393;50.560;12.636;2023-11-21T10:15:33;6.23;;;3.10;;
4758;SDS011;2393;50.560;12.636;2023-11-21T10:18:02;7.47;;;2.70;;
4758;SDS011;2393;50.560;12.636;2023-11-21T10:20:32;6.90;;;2.80;;
4758;SDS011;2393;50.560;12.636;2023-11-21T10:23:01;3.23;;;2.73;;
4758;SDS011;2393;50.560;12.636;2023-11-21T10:25:31;2.73;;;2.53;;
4758;SDS011;2393;50.560;12.636;2023-11-21T10:27:59;3.20;;;2.03;;
4758;SDS011;2393;50.560;12.636;2023-11-21T10:30:34;3.17;;;1.73;;
4758;SDS011;2393;50.560;12.636;2023-11-21T10:33:04;7.03;;;2.10;;
4758;SDS011;2393;50.560;12.636;2023-11-21T10:35:39;1.90;;;1.60;;
4758;SDS011;2393;50.560;12.636;2023-11-21T10:38:15;4.03;;;1.33;;
4758;SDS011;2393;50.560;12.636;2023-11-21T10:40:44;1.30;;;1.20;;
4758;SDS011;2393;50.560;12.636;2023-11-21T10:43:13;5.67;;;1.80;;
4758;SDS011;2393;50.560;12.636;2023-11-21T10:45:42;5.97;;;1.47;;
4758;SDS011;2393;50.560;12.636;2023-11-21T10:48:11;1.10;;;1.10;;
4758;SDS011;2393;50.560;12.636;2023-11-21T10:50:43;0.60;;;0.60;;
4758;SDS011;2393;50.560;12.636;2023-11-21T10:53:12;0.90;;;0.90;;
4758;SDS011;2393;50.560;12.636;2023-11-21T10:55:42;0.70;;;0.70;;
4758;SDS011;2393;50.560;12.636;2023-11-21T10:58:13;0.80;;;0.80;;
4758;SDS011;2393;50.560;12.636;2023-11-21T11:00:42;0.80;;;0.80;;
4758;SDS011;2393;50.560;12.636;2023-11-21T11:03:12;1.40;;;0.53;;
4758;SDS011;2393;50.560;12.636;2023-11-21T11:05:43;0.70;;;0.60;;
4758;SDS011;2393;50.560;12.636;2023-11-21T11:08:19;0.93;;;0.93;;
4758;SDS011;2393;50.560;12.636;2023-11-21T11:10:54;1.77;;;1.67;;
4758;SDS011;2393;50.560;12.636;2023-11-21T11:13:26;1.17;;;1.17;;
4758;SDS011;2393;50.560;12.636;2023-11-21T11:15:57;0.73;;;0.73;;
4758;SDS011;2393;50.560;12.636;2023-11-21T11:18:28;1.67;;;0.97;;
4758;SDS011;2393;50.560;12.636;2023-11-21T11:20:58;1.60;;;1.47;;
4758;SDS011;2393;50.560;12.636;2023-11-21T11:23:51;1.97;;;1.77;;
4758;SDS011;2393;50.560;12.636;2023-11-21T11:26:37;1.30;;;1.30;;
4758;SDS011;2393;50.560;12.636;2023-11-21T11:29:18;1.80;;;1.70;;
4758;SDS011;2393;50.560;12.636;2023-11-21T11:31:59;1.20;;;1.20;;
4758;SDS011;2393;50.560;12.636;2023-11-21T11:34:36;2.37;;;2.17;;
4758;SDS011;2393;50.560;12.636;2023-11-21T11:37:09;3.30;;;2.67;;
4758;SDS011;2393;50.560;12.636;2023-11-21T11:39:38;6.03;;;3.30;;
4758;SDS011;2393;50.560;12.636;2023-11-21T11:42:11;3.73;;;3.17;;
4758;SDS011;2393;50.560;12.636;2023-11-21T11:44:49;3.17;;;2.77;;
4758;SDS011;2393;50.560;12.636;2023-11-21T11:47:20;3.70;;;2.87;;
4758;SDS011;2393;50.560;12.636;2023-11-21T11:49:57;5.40;;;4.10;;
4758;SDS011;2393;50.560;12.636;2023-11-21T11:52:37;5.90;;;2.97;;
4758;SDS011;2393;50.560;12.636;2023-11-21T11:55:08;3.17;;;2.87;;
4758;SDS011;2393;50.560;12.636;2023-11-21T11:57:37;3.87;;;3.07;;
4758;SDS011;2393;50.560;12.636;2023-11-21T12:00:11;2.93;;;2.67;;
4758;SDS011;2393;50.560;12.636;2023-11-21T12:02:45;1.97;;;1.87;;
4758;SDS011;2393;50.560;12.636;2023-11-21T12:05:15;3.63;;;2.93;;
4758;SDS011;2393;50.560;12.636;2023-11-21T12:07:46;4.00;;;2.37;;
4758;SDS011;2393;50.560;12.636;2023-11-21T12:10:16;2.60;;;2.40;;
4758;SDS011;2393;50.560;12.636;2023-11-21T12:12:46;8.33;;;4.30;;
4758;SDS011;2393;50.560;12.636;2023-11-21T12:15:16;4.20;;;3.30;;
4758;SDS011;2393;50.560;12.636;2023-11-21T12:17:45;4.47;;;3.20;;
4758;SDS011;2393;50.560;12.636;2023-11-21T12:20:16;4.30;;;3.37;;
4758;SDS011;2393;50.560;12.636;2023-11-21T12:22:47;2.70;;;2.50;;
4758;SDS011;2393;50.560;12.636;2023-11-21T12:25:16;6.67;;;2.60;;
4758;SDS011;2393;50.560;12.636;2023-11-21T12:27:45;3.73;;;2.50;;
4758;SDS011;2393;50.560;12.636;2023-11-21T12:30:18;3.70;;;2.57;;
4758;SDS011;2393;50.560;12.636;2023-11-21T12:32:49;2.60;;;2.40;;
4758;SDS011;2393;50.560;12.636;2023-11-21T12:35:19;3.27;;;2.67;;
4758;SDS011;2393;50.560;12.636;2023-11-21T12:37:48;3.43;;;2.90;;
4758;SDS011;2393;50.560;12.636;2023-11-21T12:40:17;4.37;;;3.20;;
4758;SDS011;2393;50.560;12.636;2023-11-21T12:42:46;5.70;;;3.37;;
4758;SDS011;2393;50.560;12.636;2023-11-21T12:45:21;6.80;;;4.20;;
4758;SDS011;2393;50.560;12.636;2023-11-21T12:47:54;5.50;;;3.90;;
4758;SDS011;2393;50.560;12.636;2023-11-21T12:50:24;4.63;;;4.00;;
4758;SDS011;2393;50.560;12.636;2023-11-21T12:52:58;5.47;;;3.77;;
4758;SDS011;2393;50.560;12.636;2023-11-21T12:55:29;5.17;;;3.03;;
4758;SDS011;2393;50.560;12.636;2023-11-21T12:58:00;4.47;;;3.17;;
4758;SDS011;2393;50.560;12.636;2023-11-21T13:00:37;5.30;;;3.13;;
4758;SDS011;2393;50.560;12.636;2023-11-21T13:03:09;3.03;;;2.70;;
4758;SDS011;2393;50.560;12.636;2023-11-21T13:05:40;5.00;;;3.80;;
4758;SDS011;2393;50.560;12.636;2023-11-21T13:08:14;3.63;;;2.90;;
4758;SDS011;2393;50.560;12.636;2023-11-21T13:10:46;4.40;;;3.10;;
4758;SDS011;2393;50.560;12.636;2023-11-21T13:13:17;2.57;;;2.33;;
4758;SDS011;2393;50.560;12.636;2023-11-21T13:15:52;4.67;;;2.63;;
4758;SDS011;2393;50.560;12.636;2023-11-21T13:18:23;3.80;;;2.60;;
4758;SDS011;2393;50.560;12.636;2023-11-21T13:20:53;4.67;;;3.10;;
4758;SDS011;2393;50.560;12.636;2023-11-21T13:23:23;5.23;;;2.90;;
4758;SDS011;2393;50.560;12.636;2023-11-21T13:25:51;2.80;;;1.83;;
4758;SDS011;2393;50.560;12.636;2023-11-21T13:28:30;3.43;;;2.30;;
4758;SDS011;2393;50.560;12.636;2023-11-21T13:31:01;3.57;;;2.20;;
4758;SDS011;2393;50.560;12.636;2023-11-21T13:33:37;2.43;;;1.87;;
4758;SDS011;2393;50.560;12.636;2023-11-21T13:36:09;1.90;;;1.70;;
4758;SDS011;2393;50.560;12.636;2023-11-21T13:38:40;4.10;;;2.00;;
4758;SDS011;2393;50.560;12.636;2023-11-21T13:41:10;1.57;;;1.33;;
4758;SDS011;2393;50.560;12.636;2023-11-21T13:43:40;2.20;;;1.67;;
4758;SDS011;2393;50.560;12.636;2023-11-21T13:46:13;3.30;;;2.33;;
4758;SDS011;2393;50.560;12.636;2023-11-21T13:48:48;2.13;;;1.67;;
4758;SDS011;2393;50.560;12.636;2023-11-21T13:51:18;2.30;;;1.93;;
4758;SDS011;2393;50.560;12.636;2023-11-21T13:53:47;2.20;;;2.03;;
4758;SDS011;2393;50.560;12.636;2023-11-21T13:56:18;3.53;;;2.20;;
4758;SDS011;2393;50.560;12.636;2023-11-21T13:58:51;5.63;;;2.67;;
4758;SDS011;2393;50.560;12.636;2023-11-21T14:01:22;3.60;;;2.23;;
4758;SDS011;2393;50.560;12.636;2023-11-21T14:04:14;2.37;;;2.17;;
4758;SDS011;2393;50.560;12.636;2023-11-21T14:06:58;3.53;;;2.80;;
4758;SDS011;2393;50.560;12.636;2023-11-21T14:09:37;3.10;;;2.73;;
4758;SDS011;2393;50.560;12.636;2023-11-21T14:12:10;5.47;;;3.30;;
4758;SDS011;2393;50.560;12.636;2023-11-21T14:14:41;5.17;;;3.10;;
4758;SDS011;2393;50.560;12.636;2023-11-21T14:17:11;6.70;;;3.40;;
4758;SDS011;2393;50.560;12.636;2023-11-21T14:19:39;2.87;;;2.33;;
4758;SDS011;2393;50.560;12.636;2023-11-21T14:22:10;3.40;;;2.47;;
4758;SDS011;2393;50.560;12.636;2023-11-21T14:24:39;4.67;;;3.30;;
4758;SDS011;2393;50.560;12.636;2023-11-21T14:27:10;2.30;;;2.07;;
4758;SDS011;2393;50.560;12.636;2023-11-21T14:29:38;5.13;;;3.13;;
4758;SDS011;2393;50.560;12.636;2023-11-21T14:32:11;2.30;;;2.10;;
4758;SDS011;2393;50.560;12.636;2023-11-21T14:34:41;1.63;;;1.53;;
4758;SDS011;2393;50.560;12.636;2023-11-21T14:37:12;1.57;;;1.30;;
4758;SDS011;2393;50.560;12.636;2023-11-21T14:39:40;1.40;;;1.30;;
4758;SDS011;2393;50.560;12.636;2023-11-21T14:42:11;1.37;;;1.23;;
4758;SDS011;2393;50.560;12.636;2023-11-21T14:44:41;0.90;;;0.90;;
4758;SDS011;2393;50.560;12.636;2023-11-21T14:47:09;1.80;;;1.43;;
4758;SDS011;2393;50.560;12.636;2023-11-21T14:49:43;1.80;;;1.70;;
4758;SDS011;2393;50.560;12.636;2023-11-21T14:52:22;0.83;;;0.83;;
4758;SDS011;2393;50.560;12.636;2023-11-21T14:55:00;4.37;;;0.83;;
4758;SDS011;2393;50.560;12.636;2023-11-21T14:57:48;0.80;;;0.73;;
4758;SDS011;2393;50.560;12.636;2023-11-21T15:00:18;1.10;;;1.10;;
4758;SDS011;2393;50.560;12.636;2023-11-21T15:03:12;1.30;;;0.97;;
4758;SDS011;2393;50.560;12.636;2023-11-21T15:06:01;0.77;;;0.70;;
4758;SDS011;2393;50.560;12.636;2023-11-21T15:08:48;1.10;;;1.10;;
4758;SDS011;2393;50.560;12.636;2023-11-21T15:11:23;0.53;;;0.53;;
4758;SDS011;2393;50.560;12.636;2023-11-21T15:13:57;1.90;;;1.10;;
4758;SDS011;2393;50.560;12.636;2023-11-21T15:16:26;0.97;;;0.97;;
4758;SDS011;2393;50.560;12.636;2023-11-21T15:18:55;1.63;;;1.50;;
4758;SDS011;2393;50.560;12.636;2023-11-21T15:21:23;3.17;;;1.87;;